sensor_id;sensor_type;location;lat;lon;timestamp;pressure;altitude;pressure_sealevel;temperature;humidity
28167;BME280;15455;53.376;-6.262;2022-07-29T00:02:01;101489.84;;;10.28;100.00
28167;BME280;15455;53.376;-6.262;2022-07-29T00:04:47;101487.41;;;10.39;100.00
28167;BME280;15455;53.376;-6.262;2022-07-29T00:07:32;101497.13;;;10.54;100.00
28167;BME280;15455;53.376;-6.262;2022-07-29T00:10:18;101491.09;;;10.61;100.00
28167;BME280;15455;53.376;-6.262;2022-07-29T00:13:03;101498.25;;;10.79;100.00
28167;BME280;15455;53.376;-6.262;2022-07-29T00:15:49;101498.44;;;11.02;100.00
28167;BME280;15455;53.376;-6.262;2022-07-29T00:18:35;101493.28;;;11.16;100.00
28167;BME280;15455;53.376;-6.262;2022-07-29T00:21:20;101491.59;;;11.23;100.00
28167;BME280;15455;53.376;-6.262;2022-07-29T00:24:06;101496.81;;;11.20;100.00
28167;BME280;15455;53.376;-6.262;2022-07-29T00:26:52;101504.63;;;11.17;100.00
28167;BME280;15455;53.376;-6.262;2022-07-29T00:29:37;101502.06;;;11.23;100.00
28167;BME280;15455;53.376;-6.262;2022-07-29T00:32:23;101495.19;;;11.37;100.00
28167;BME280;15455;53.376;-6.262;2022-07-29T00:35:09;101498.69;;;11.42;100.00
28167;BME280;15455;53.376;-6.262;2022-07-29T00:38:15;101498.66;;;11.41;100.00
28167;BME280;15455;53.376;-6.262;2022-07-29T00:41:01;101502.19;;;11.43;100.00
28167;BME280;15455;53.376;-6.262;2022-07-29T00:43:46;101498.78;;;11.56;100.00
28167;BME280;15455;53.376;-6.262;2022-07-29T00:46:31;101494.47;;;11.66;100.00
28167;BME280;15455;53.376;-6.262;2022-07-29T00:49:17;101496.25;;;11.73;100.00
28167;BME280;15455;53.376;-6.262;2022-07-29T00:52:07;101496.31;;;11.89;100.00
28167;BME280;15455;53.376;-6.262;2022-07-29T00:54:53;101491.16;;;12.03;100.00
28167;BME280;15455;53.376;-6.262;2022-07-29T00:57:40;101491.16;;;12.09;100.00
28167;BME280;15455;53.376;-6.262;2022-07-29T01:00:28;101482.47;;;12.08;100.00
28167;BME280;15455;53.376;-6.262;2022-07-29T01:03:14;101485.97;;;12.13;100.00
28167;BME280;15455;53.376;-6.262;2022-07-29T01:06:00;101483.38;;;12.16;100.00
28167;BME280;15455;53.376;-6.262;2022-07-29T01:08:47;101480.75;;;12.30;100.00
28167;BME280;15455;53.376;-6.262;2022-07-29T01:11:33;101481.66;;;12.31;100.00
28167;BME280;15455;53.376;-6.262;2022-07-29T01:14:23;101475.56;;;12.33;100.00
28167;BME280;15455;53.376;-6.262;2022-07-29T01:17:39;101472.09;;;12.45;100.00
28167;BME280;15455;53.376;-6.262;2022-07-29T01:26:49;101472.09;;;12.56;100.00
28167;BME280;15455;53.376;-6.262;2022-07-29T01:29:41;101466.84;;;12.56;100.00
28167;BME280;15455;53.376;-6.262;2022-07-29T01:32:35;101466.88;;;12.65;100.00
28167;BME280;15455;53.376;-6.262;2022-07-29T01:35:41;101469.50;;;12.65;100.00
28167;BME280;15455;53.376;-6.262;2022-07-29T01:38:28;101476.44;;;12.65;100.00
28167;BME280;15455;53.376;-6.262;2022-07-29T01:41:16;101477.34;;;12.62;100.00
28167;BME280;15455;53.376;-6.262;2022-07-29T01:44:12;101479.97;;;12.75;100.00
28167;BME280;15455;53.376;-6.262;2022-07-29T01:47:10;101473.84;;;12.79;100.00
28167;BME280;15455;53.376;-6.262;2022-07-29T01:49:59;101469.47;;;12.72;100.00
28167;BME280;15455;53.376;-6.262;2022-07-29T01:52:54;101469.47;;;12.78;100.00
28167;BME280;15455;53.376;-6.262;2022-07-29T01:55:44;101478.22;;;12.84;100.00
28167;BME280;15455;53.376;-6.262;2022-07-29T01:58:31;101465.13;;;12.81;100.00
28167;BME280;15455;53.376;-6.262;2022-07-29T02:01:17;101472.97;;;12.83;100.00
28167;BME280;15455;53.376;-6.262;2022-07-29T02:04:06;101471.22;;;12.79;100.00
28167;BME280;15455;53.376;-6.262;2022-07-29T02:06:58;101471.22;;;12.80;100.00
28167;BME280;15455;53.376;-6.262;2022-07-29T02:09:46;101469.50;;;12.87;100.00
28167;BME280;15455;53.376;-6.262;2022-07-29T02:12:33;101484.31;;;13.03;100.00
28167;BME280;15455;53.376;-6.262;2022-07-29T02:15:22;101482.56;;;13.12;100.00
28167;BME280;15455;53.376;-6.262;2022-07-29T02:18:13;101478.16;;;13.21;100.00
28167;BME280;15455;53.376;-6.262;2022-07-29T02:21:01;101483.41;;;13.32;100.00
28167;BME280;15455;53.376;-6.262;2022-07-29T02:23:47;101478.16;;;13.38;100.00
28167;BME280;15455;53.376;-6.262;2022-07-29T02:26:35;101482.53;;;13.43;100.00
28167;BME280;15455;53.376;-6.262;2022-07-29T02:29:25;101485.16;;;13.40;100.00
28167;BME280;15455;53.376;-6.262;2022-07-29T02:32:13;101484.28;;;13.44;100.00
28167;BME280;15455;53.376;-6.262;2022-07-29T02:35:01;101483.41;;;13.49;100.00
28167;BME280;15455;53.376;-6.262;2022-07-29T02:37:48;101485.16;;;13.52;100.00
28167;BME280;15455;53.376;-6.262;2022-07-29T02:40:53;101484.28;;;13.44;100.00
28167;BME280;15455;53.376;-6.262;2022-07-29T02:43:41;101487.75;;;13.50;100.00
28167;BME280;15455;53.376;-6.262;2022-07-29T02:46:34;101482.53;;;13.52;100.00
28167;BME280;15455;53.376;-6.262;2022-07-29T02:52:16;101472.88;;;13.57;100.00
28167;BME280;15455;53.376;-6.262;2022-07-29T02:55:15;101474.66;;;13.55;100.00
28167;BME280;15455;53.376;-6.262;2022-07-29T03:01:01;101468.53;;;13.51;100.00
28167;BME280;15455;53.376;-6.262;2022-07-29T03:03:48;101475.53;;;13.51;100.00
28167;BME280;15455;53.376;-6.262;2022-07-29T03:06:35;101469.41;;;13.47;100.00
28167;BME280;15455;53.376;-6.262;2022-07-29T03:09:23;101470.31;;;13.48;100.00
28167;BME280;15455;53.376;-6.262;2022-07-29T03:12:12;101473.78;;;13.51;100.00
28167;BME280;15455;53.376;-6.262;2022-07-29T03:14:59;101477.28;;;13.53;100.00
28167;BME280;15455;53.376;-6.262;2022-07-29T03:17:46;101479.00;;;13.56;100.00
28167;BME280;15455;53.376;-6.262;2022-07-29T03:20:33;101488.63;;;13.55;100.00
28167;BME280;15455;53.376;-6.262;2022-07-29T03:23:19;101479.00;;;13.54;100.00
28167;BME280;15455;53.376;-6.262;2022-07-29T03:26:06;101482.53;;;13.53;100.00
28167;BME280;15455;53.376;-6.262;2022-07-29T03:28:51;101486.00;;;13.54;100.00
28167;BME280;15455;53.376;-6.262;2022-07-29T03:31:37;101486.00;;;13.59;100.00
28167;BME280;15455;53.376;-6.262;2022-07-29T03:34:27;101486.88;;;13.54;100.00
28167;BME280;15455;53.376;-6.262;2022-07-29T03:37:13;101489.50;;;13.54;100.00
28167;BME280;15455;53.376;-6.262;2022-07-29T03:39:58;101491.25;;;13.55;100.00
28167;BME280;15455;53.376;-6.262;2022-07-29T03:42:45;101496.50;;;13.57;100.00
28167;BME280;15455;53.376;-6.262;2022-07-29T03:45:33;101499.97;;;13.58;100.00
28167;BME280;15455;53.376;-6.262;2022-07-29T03:48:20;101504.34;;;13.57;100.00
28167;BME280;15455;53.376;-6.262;2022-07-29T03:51:07;101498.25;;;13.60;100.00
28167;BME280;15455;53.376;-6.262;2022-07-29T03:53:53;101495.63;;;13.60;100.00
28167;BME280;15455;53.376;-6.262;2022-07-29T03:56:42;101499.09;;;13.59;100.00
28167;BME280;15455;53.376;-6.262;2022-07-29T03:59:32;101493.88;;;13.57;100.00
28167;BME280;15455;53.376;-6.262;2022-07-29T04:02:20;101500.84;;;13.61;100.00
28167;BME280;15455;53.376;-6.262;2022-07-29T04:05:13;101504.34;;;13.59;100.00
28167;BME280;15455;53.376;-6.262;2022-07-29T04:07:59;101513.09;;;13.56;100.00
28167;BME280;15455;53.376;-6.262;2022-07-29T04:10:45;101516.59;;;13.58;100.00
28167;BME280;15455;53.376;-6.262;2022-07-29T04:13:32;101515.72;;;13.61;100.00
28167;BME280;15455;53.376;-6.262;2022-07-29T04:16:18;101507.84;;;13.58;100.00
28167;BME280;15455;53.376;-6.262;2022-07-29T04:19:03;101507.84;;;13.58;100.00
28167;BME280;15455;53.376;-6.262;2022-07-29T04:21:49;101508.75;;;13.57;100.00
28167;BME280;15455;53.376;-6.262;2022-07-29T04:24:34;101505.22;;;13.56;100.00
28167;BME280;15455;53.376;-6.262;2022-07-29T04:27:20;101512.25;;;13.52;100.00
28167;BME280;15455;53.376;-6.262;2022-07-29T04:30:06;101520.09;;;13.55;100.00
28167;BME280;15455;53.376;-6.262;2022-07-29T04:32:52;101519.22;;;13.50;100.00
28167;BME280;15455;53.376;-6.262;2022-07-29T04:35:38;101515.72;;;13.51;100.00
28167;BME280;15455;53.376;-6.262;2022-07-29T04:38:34;101528.81;;;13.56;100.00
28167;BME280;15455;53.376;-6.262;2022-07-29T04:41:19;101522.72;;;13.55;100.00
28167;BME280;15455;53.376;-6.262;2022-07-29T04:44:05;101520.97;;;13.56;100.00
28167;BME280;15455;53.376;-6.262;2022-07-29T04:46:52;101516.63;;;13.55;100.00
28167;BME280;15455;53.376;-6.262;2022-07-29T04:49:38;101518.31;;;13.58;100.00
28167;BME280;15455;53.376;-6.262;2022-07-29T04:52:24;101513.13;;;13.59;100.00
28167;BME280;15455;53.376;-6.262;2022-07-29T04:55:09;101518.34;;;13.59;100.00
28167;BME280;15455;53.376;-6.262;2022-07-29T04:57:54;101515.72;;;13.56;100.00
28167;BME280;15455;53.376;-6.262;2022-07-29T05:00:40;101521.88;;;13.53;100.00
28167;BME280;15455;53.376;-6.262;2022-07-29T05:03:26;101520.97;;;13.54;100.00
28167;BME280;15455;53.376;-6.262;2022-07-29T05:06:12;101513.09;;;13.54;100.00
28167;BME280;15455;53.376;-6.262;2022-07-29T05:08:57;101514.84;;;13.55;100.00
28167;BME280;15455;53.376;-6.262;2022-07-29T05:11:42;101514.88;;;13.52;100.00
28167;BME280;15455;53.376;-6.262;2022-07-29T05:14:28;101510.50;;;13.50;100.00
28167;BME280;15455;53.376;-6.262;2022-07-29T05:17:13;101507.00;;;13.49;100.00
28167;BME280;15455;53.376;-6.262;2022-07-29T05:19:59;101512.25;;;13.48;100.00
28167;BME280;15455;53.376;-6.262;2022-07-29T05:22:44;101513.13;;;13.47;100.00
28167;BME280;15455;53.376;-6.262;2022-07-29T05:25:29;101525.34;;;13.51;100.00
28167;BME280;15455;53.376;-6.262;2022-07-29T05:28:28;101520.09;;;13.54;100.00
28167;BME280;15455;53.376;-6.262;2022-07-29T05:31:14;101520.97;;;13.59;100.00
28167;BME280;15455;53.376;-6.262;2022-07-29T05:34:00;101523.59;;;13.64;100.00
28167;BME280;15455;53.376;-6.262;2022-07-29T05:36:46;101520.06;;;13.68;100.00
28167;BME280;15455;53.376;-6.262;2022-07-29T05:39:31;101521.78;;;13.72;100.00
28167;BME280;15455;53.376;-6.262;2022-07-29T05:42:34;101524.41;;;13.78;100.00
28167;BME280;15455;53.376;-6.262;2022-07-29T05:45:20;101527.03;;;13.81;100.00
28167;BME280;15455;53.376;-6.262;2022-07-29T05:48:05;101522.63;;;13.86;100.00
28167;BME280;15455;53.376;-6.262;2022-07-29T05:50:52;101529.59;;;13.90;100.00
28167;BME280;15455;53.376;-6.262;2022-07-29T05:53:38;101533.09;;;13.96;100.00
28167;BME280;15455;53.376;-6.262;2022-07-29T05:56:24;101536.56;;;13.98;100.00
28167;BME280;15455;53.376;-6.262;2022-07-29T05:59:10;101539.19;;;14.02;100.00
28167;BME280;15455;53.376;-6.262;2022-07-29T06:02:03;101533.06;;;14.03;100.00
28167;BME280;15455;53.376;-6.262;2022-07-29T06:04:50;101522.53;;;14.05;100.00
28167;BME280;15455;53.376;-6.262;2022-07-29T06:07:36;101527.78;;;14.10;100.00
28167;BME280;15455;53.376;-6.262;2022-07-29T06:10:23;101523.41;;;14.13;100.00
28167;BME280;15455;53.376;-6.262;2022-07-29T06:13:11;101529.50;;;14.18;100.00
28167;BME280;15455;53.376;-6.262;2022-07-29T06:15:57;101526.84;;;14.24;100.00
28167;BME280;15455;53.376;-6.262;2022-07-29T06:18:43;101536.44;;;14.32;100.00
28167;BME280;15455;53.376;-6.262;2022-07-29T06:21:29;101528.50;;;14.38;100.00
28167;BME280;15455;53.376;-6.262;2022-07-29T06:24:15;101529.38;;;14.45;100.00
28167;BME280;15455;53.376;-6.262;2022-07-29T06:27:01;101524.06;;;14.52;100.00
28167;BME280;15455;53.376;-6.262;2022-07-29T06:29:46;101527.50;;;14.61;100.00
28167;BME280;15455;53.376;-6.262;2022-07-29T06:32:33;101526.63;;;14.68;100.00
28167;BME280;15455;53.376;-6.262;2022-07-29T06:35:18;101536.19;;;14.75;100.00
28167;BME280;15455;53.376;-6.262;2022-07-29T06:38:23;101530.00;;;14.84;100.00
28167;BME280;15455;53.376;-6.262;2022-07-29T06:41:18;101538.69;;;14.92;100.00
28167;BME280;15455;53.376;-6.262;2022-07-29T06:44:03;101522.91;;;14.92;100.00
28167;BME280;15455;53.376;-6.262;2022-07-29T06:46:49;101523.78;;;14.96;100.00
28167;BME280;15455;53.376;-6.262;2022-07-29T06:49:36;101524.59;;;15.02;100.00
28167;BME280;15455;53.376;-6.262;2022-07-29T06:52:22;101534.16;;;15.13;100.00
28167;BME280;15455;53.376;-6.262;2022-07-29T06:55:07;101530.56;;;15.21;100.00
28167;BME280;15455;53.376;-6.262;2022-07-29T06:57:53;101526.13;;;15.26;100.00
28167;BME280;15455;53.376;-6.262;2022-07-29T07:00:39;101529.56;;;15.35;100.00
28167;BME280;15455;53.376;-6.262;2022-07-29T07:03:24;101525.88;;;15.50;100.00
28167;BME280;15455;53.376;-6.262;2022-07-29T07:06:10;101530.19;;;15.61;100.00
28167;BME280;15455;53.376;-6.262;2022-07-29T07:08:59;101519.53;;;15.71;100.00
28167;BME280;15455;53.376;-6.262;2022-07-29T07:11:44;101525.59;;;15.82;100.00
28167;BME280;15455;53.376;-6.262;2022-07-29T07:14:33;101521.06;;;15.93;100.00
28167;BME280;15455;53.376;-6.262;2022-07-29T07:17:19;101520.06;;;16.02;100.00
28167;BME280;15455;53.376;-6.262;2022-07-29T07:20:05;101522.56;;;16.11;100.00
28167;BME280;15455;53.376;-6.262;2022-07-29T07:22:53;101517.13;;;16.25;100.00
28167;BME280;15455;53.376;-6.262;2022-07-29T07:25:38;101521.34;;;16.37;100.00
28167;BME280;15455;53.376;-6.262;2022-07-29T07:28:23;101524.69;;;16.50;100.00
28167;BME280;15455;53.376;-6.262;2022-07-29T07:31:10;101517.56;;;16.58;100.00
28167;BME280;15455;53.376;-6.262;2022-07-29T07:33:56;101521.75;;;16.70;100.00
28167;BME280;15455;53.376;-6.262;2022-07-29T07:36:41;101521.53;;;16.84;100.00
28167;BME280;15455;53.376;-6.262;2022-07-29T07:39:27;101522.34;;;16.89;100.00
28167;BME280;15455;53.376;-6.262;2022-07-29T07:42:12;101521.31;;;16.99;100.00
28167;BME280;15455;53.376;-6.262;2022-07-29T07:44:58;101522.88;;;17.10;100.00
28167;BME280;15455;53.376;-6.262;2022-07-29T07:47:58;101523.63;;;17.18;100.00
28167;BME280;15455;53.376;-6.262;2022-07-29T07:50:44;101532.28;;;17.26;100.00
28167;BME280;15455;53.376;-6.262;2022-07-29T07:53:30;101538.25;;;17.36;100.00
28167;BME280;15455;53.376;-6.262;2022-07-29T07:56:16;101524.06;;;17.42;100.00
28167;BME280;15455;53.376;-6.262;2022-07-29T07:59:02;101522.16;;;17.51;100.00
28167;BME280;15455;53.376;-6.262;2022-07-29T08:01:47;101525.47;;;17.61;100.00
28167;BME280;15455;53.376;-6.262;2022-07-29T08:04:40;101527.94;;;17.70;100.00
28167;BME280;15455;53.376;-6.262;2022-07-29T08:07:26;101529.38;;;17.87;100.00
28167;BME280;15455;53.376;-6.262;2022-07-29T08:10:14;101530.84;;;18.02;100.00
28167;BME280;15455;53.376;-6.262;2022-07-29T08:13:06;101529.78;;;18.11;100.00
28167;BME280;15455;53.376;-6.262;2022-07-29T08:15:52;101527.03;;;18.15;100.00
28167;BME280;15455;53.376;-6.262;2022-07-29T08:18:45;101523.28;;;18.27;100.00
28167;BME280;15455;53.376;-6.262;2022-07-29T08:21:31;101522.38;;;18.28;100.00
28167;BME280;15455;53.376;-6.262;2022-07-29T08:24:16;101513.41;;;18.35;100.00
28167;BME280;15455;53.376;-6.262;2022-07-29T08:27:21;101511.41;;;18.45;100.00
28167;BME280;15455;53.376;-6.262;2022-07-29T08:30:27;101505.00;;;18.55;100.00
28167;BME280;15455;53.376;-6.262;2022-07-29T08:33:12;101501.28;;;18.64;100.00
28167;BME280;15455;53.376;-6.262;2022-07-29T08:35:58;101502.09;;;18.68;100.00
28167;BME280;15455;53.376;-6.262;2022-07-29T08:38:43;101497.66;;;18.68;100.00
28167;BME280;15455;53.376;-6.262;2022-07-29T08:41:29;101505.34;;;18.78;100.00
28167;BME280;15455;53.376;-6.262;2022-07-29T08:44:21;101503.56;;;18.80;100.00
28167;BME280;15455;53.376;-6.262;2022-07-29T08:47:15;101498.22;;;18.81;100.00
28167;BME280;15455;53.376;-6.262;2022-07-29T08:50:00;101481.59;;;18.76;100.00
28167;BME280;15455;53.376;-6.262;2022-07-29T08:52:46;101479.16;;;18.68;100.00
28167;BME280;15455;53.376;-6.262;2022-07-29T08:55:34;101482.88;;;18.60;100.00
28167;BME280;15455;53.376;-6.262;2022-07-29T08:58:20;101491.03;;;18.50;100.00
28167;BME280;15455;53.376;-6.262;2022-07-29T09:01:09;101486.81;;;18.43;100.00
28167;BME280;15455;53.376;-6.262;2022-07-29T09:03:58;101499.22;;;18.39;100.00
28167;BME280;15455;53.376;-6.262;2022-07-29T09:06:49;101495.81;;;18.33;100.00
28167;BME280;15455;53.376;-6.262;2022-07-29T09:09:36;101485.41;;;18.27;100.00
28167;BME280;15455;53.376;-6.262;2022-07-29T09:12:25;101485.47;;;18.23;100.00
28167;BME280;15455;53.376;-6.262;2022-07-29T09:15:14;101496.06;;;18.23;100.00
28167;BME280;15455;53.376;-6.262;2022-07-29T09:17:59;101492.56;;;18.23;100.00
28167;BME280;15455;53.376;-6.262;2022-07-29T09:20:51;101487.34;;;18.20;100.00
28167;BME280;15455;53.376;-6.262;2022-07-29T09:24:00;101485.66;;;18.16;100.00
28167;BME280;15455;53.376;-6.262;2022-07-29T09:26:46;101481.34;;;18.12;100.00
28167;BME280;15455;53.376;-6.262;2022-07-29T09:29:32;101483.09;;;18.13;100.00
28167;BME280;15455;53.376;-6.262;2022-07-29T09:32:20;101488.19;;;18.20;100.00
28167;BME280;15455;53.376;-6.262;2022-07-29T09:35:20;101495.81;;;18.33;100.00
28167;BME280;15455;53.376;-6.262;2022-07-29T09:38:15;101500.69;;;18.51;100.00
28167;BME280;15455;53.376;-6.262;2022-07-29T09:41:01;101495.88;;;18.69;100.00
28167;BME280;15455;53.376;-6.262;2022-07-29T09:43:57;101490.13;;;18.89;100.00
28167;BME280;15455;53.376;-6.262;2022-07-29T09:49:53;101479.88;;;19.42;98.09
28167;BME280;15455;53.376;-6.262;2022-07-29T09:52:48;101482.81;;;19.65;96.38
28167;BME280;15455;53.376;-6.262;2022-07-29T09:55:46;101483.88;;;19.90;97.61
28167;BME280;15455;53.376;-6.262;2022-07-29T09:58:32;101475.50;;;20.04;89.70
28167;BME280;15455;53.376;-6.262;2022-07-29T10:01:27;101479.38;;;20.22;91.76
28167;BME280;15455;53.376;-6.262;2022-07-29T10:04:13;101477.22;;;20.34;89.30
28167;BME280;15455;53.376;-6.262;2022-07-29T10:07:01;101473.88;;;20.28;91.66
28167;BME280;15455;53.376;-6.262;2022-07-29T10:09:52;101474.19;;;20.18;90.71
28167;BME280;15455;53.376;-6.262;2022-07-29T10:12:54;101469.09;;;20.11;93.26
28167;BME280;15455;53.376;-6.262;2022-07-29T10:15:43;101464.91;;;20.04;92.69
28167;BME280;15455;53.376;-6.262;2022-07-29T10:18:31;101471.25;;;19.99;91.20
28167;BME280;15455;53.376;-6.262;2022-07-29T10:21:17;101472.78;;;20.06;90.77
28167;BME280;15455;53.376;-6.262;2022-07-29T10:24:20;101474.13;;;20.21;89.99
28167;BME280;15455;53.376;-6.262;2022-07-29T10:27:07;101477.00;;;20.41;90.19
28167;BME280;15455;53.376;-6.262;2022-07-29T10:29:54;101480.59;;;20.69;90.20
28167;BME280;15455;53.376;-6.262;2022-07-29T10:36:04;101467.66;;;20.85;86.82
28167;BME280;15455;53.376;-6.262;2022-07-29T10:39:32;101465.13;;;20.81;86.50
28167;BME280;15455;53.376;-6.262;2022-07-29T10:42:39;101474.47;;;20.65;86.32
28167;BME280;15455;53.376;-6.262;2022-07-29T10:45:25;101481.16;;;20.50;86.28
28167;BME280;15455;53.376;-6.262;2022-07-29T10:48:12;101476.44;;;20.32;86.04
28167;BME280;15455;53.376;-6.262;2022-07-29T10:51:03;101474.97;;;20.21;89.44
28167;BME280;15455;53.376;-6.262;2022-07-29T10:53:52;101479.75;;;20.10;91.23
28167;BME280;15455;53.376;-6.262;2022-07-29T10:56:38;101478.25;;;20.01;92.21
28167;BME280;15455;53.376;-6.262;2022-07-29T10:59:28;101477.78;;;19.87;92.22
28167;BME280;15455;53.376;-6.262;2022-07-29T11:05:28;101476.06;;;19.54;95.00
28167;BME280;15455;53.376;-6.262;2022-07-29T11:08:25;101483.34;;;19.46;94.81
28167;BME280;15455;53.376;-6.262;2022-07-29T11:11:31;101478.97;;;19.43;97.40
28167;BME280;15455;53.376;-6.262;2022-07-29T11:15:00;101476.38;;;19.42;97.41
28167;BME280;15455;53.376;-6.262;2022-07-29T11:20:39;101470.72;;;19.56;98.10
28167;BME280;15455;53.376;-6.262;2022-07-29T11:23:33;101473.94;;;19.66;100.00
28167;BME280;15455;53.376;-6.262;2022-07-29T11:26:27;101473.78;;;19.72;99.60
28167;BME280;15455;53.376;-6.262;2022-07-29T11:29:19;101474.59;;;19.74;98.93
28167;BME280;15455;53.376;-6.262;2022-07-29T11:32:14;101485.16;;;19.75;100.00
28167;BME280;15455;53.376;-6.262;2022-07-29T11:35:21;101472.81;;;19.74;98.00
28167;BME280;15455;53.376;-6.262;2022-07-29T11:41:26;101473.00;;;19.68;97.40
28167;BME280;15455;53.376;-6.262;2022-07-29T11:44:12;101471.78;;;19.80;97.88
28167;BME280;15455;53.376;-6.262;2022-07-29T11:47:02;101462.44;;;19.98;96.45
28167;BME280;15455;53.376;-6.262;2022-07-29T11:49:51;101469.03;;;20.13;93.60
28167;BME280;15455;53.376;-6.262;2022-07-29T11:52:40;101458.94;;;20.26;93.53
28167;BME280;15455;53.376;-6.262;2022-07-29T11:55:35;101467.25;;;20.42;93.99
28167;BME280;15455;53.376;-6.262;2022-07-29T11:58:36;101462.00;;;20.40;90.60
28167;BME280;15455;53.376;-6.262;2022-07-29T12:01:23;101455.91;;;20.38;90.49
28167;BME280;15455;53.376;-6.262;2022-07-29T12:04:12;101457.00;;;20.31;93.49
28167;BME280;15455;53.376;-6.262;2022-07-29T12:06:58;101449.59;;;20.14;91.60
28167;BME280;15455;53.376;-6.262;2022-07-29T12:09:51;101455.59;;;19.91;93.68
28167;BME280;15455;53.376;-6.262;2022-07-29T12:12:41;101452.34;;;19.81;96.81
28167;BME280;15455;53.376;-6.262;2022-07-29T12:15:27;101453.38;;;19.75;98.21
28167;BME280;15455;53.376;-6.262;2022-07-29T12:18:30;101448.34;;;19.66;98.12
28167;BME280;15455;53.376;-6.262;2022-07-29T12:21:15;101456.72;;;19.51;97.67
28167;BME280;15455;53.376;-6.262;2022-07-29T12:24:01;101456.69;;;19.52;100.00
28167;BME280;15455;53.376;-6.262;2022-07-29T12:26:57;101453.84;;;19.58;99.70
28167;BME280;15455;53.376;-6.262;2022-07-29T12:29:42;101448.22;;;19.71;100.00
28167;BME280;15455;53.376;-6.262;2022-07-29T12:32:33;101458.34;;;19.88;100.00
28167;BME280;15455;53.376;-6.262;2022-07-29T12:35:19;101456.09;;;20.04;100.00
28167;BME280;15455;53.376;-6.262;2022-07-29T12:38:06;101460.09;;;20.17;97.24
28167;BME280;15455;53.376;-6.262;2022-07-29T12:40:54;101460.69;;;20.27;96.44
28167;BME280;15455;53.376;-6.262;2022-07-29T12:43:52;101448.38;;;20.53;95.80
28167;BME280;15455;53.376;-6.262;2022-07-29T12:46:38;101450.91;;;20.82;99.28
28167;BME280;15455;53.376;-6.262;2022-07-29T12:49:24;101437.63;;;21.09;92.70
28167;BME280;15455;53.376;-6.262;2022-07-29T12:52:31;101441.75;;;21.42;91.25
28167;BME280;15455;53.376;-6.262;2022-07-29T12:55:40;101445.16;;;21.71;88.62
28167;BME280;15455;53.376;-6.262;2022-07-29T12:58:30;101435.22;;;21.76;89.29
28167;BME280;15455;53.376;-6.262;2022-07-29T13:01:17;101436.66;;;21.84;85.18
28167;BME280;15455;53.376;-6.262;2022-07-29T13:04:04;101439.13;;;21.89;82.84
28167;BME280;15455;53.376;-6.262;2022-07-29T13:06:58;101434.66;;;21.90;83.99
28167;BME280;15455;53.376;-6.262;2022-07-29T13:09:44;101434.97;;;22.06;86.31
28167;BME280;15455;53.376;-6.262;2022-07-29T13:12:33;101436.44;;;22.13;85.66
28167;BME280;15455;53.376;-6.262;2022-07-29T13:15:18;101435.25;;;22.20;79.43
28167;BME280;15455;53.376;-6.262;2022-07-29T13:18:04;101436.47;;;22.35;82.38
28167;BME280;15455;53.376;-6.262;2022-07-29T13:20:49;101435.88;;;22.49;78.89
28167;BME280;15455;53.376;-6.262;2022-07-29T13:23:35;101436.78;;;22.70;83.28
28167;BME280;15455;53.376;-6.262;2022-07-29T13:26:22;101436.66;;;22.73;77.16
28167;BME280;15455;53.376;-6.262;2022-07-29T13:29:08;101432.94;;;22.77;81.36
28167;BME280;15455;53.376;-6.262;2022-07-29T13:31:54;101426.56;;;22.81;78.88
28167;BME280;15455;53.376;-6.262;2022-07-29T13:34:40;101437.91;;;22.85;78.88
28167;BME280;15455;53.376;-6.262;2022-07-29T13:37:26;101431.19;;;22.76;71.58
28167;BME280;15455;53.376;-6.262;2022-07-29T13:40:15;101428.88;;;22.89;73.42
28167;BME280;15455;53.376;-6.262;2022-07-29T13:43:00;101418.41;;;23.05;73.89
28167;BME280;15455;53.376;-6.262;2022-07-29T13:45:46;101418.19;;;23.11;69.04
28167;BME280;15455;53.376;-6.262;2022-07-29T13:48:31;101415.25;;;23.17;67.09
28167;BME280;15455;53.376;-6.262;2022-07-29T13:51:17;101412.31;;;23.23;64.76
28167;BME280;15455;53.376;-6.262;2022-07-29T13:54:03;101401.28;;;23.31;67.49
28167;BME280;15455;53.376;-6.262;2022-07-29T13:56:49;101405.56;;;23.35;64.21
28167;BME280;15455;53.376;-6.262;2022-07-29T13:59:35;101396.94;;;23.49;63.81
28167;BME280;15455;53.376;-6.262;2022-07-29T14:02:21;101404.72;;;23.73;66.13
28167;BME280;15455;53.376;-6.262;2022-07-29T14:05:10;101402.53;;;23.81;65.56
28167;BME280;15455;53.376;-6.262;2022-07-29T14:07:56;101392.91;;;23.59;65.35
28167;BME280;15455;53.376;-6.262;2022-07-29T14:10:41;101401.75;;;23.41;68.27
28167;BME280;15455;53.376;-6.262;2022-07-29T14:13:26;101399.72;;;23.27;69.80
28167;BME280;15455;53.376;-6.262;2022-07-29T14:16:13;101405.75;;;23.12;64.81
28167;BME280;15455;53.376;-6.262;2022-07-29T14:18:59;101397.69;;;23.13;66.37
28167;BME280;15455;53.376;-6.262;2022-07-29T14:21:45;101403.94;;;23.12;66.59
28167;BME280;15455;53.376;-6.262;2022-07-29T14:24:31;101396.00;;;23.11;65.70
28167;BME280;15455;53.376;-6.262;2022-07-29T14:27:20;101401.09;;;23.17;64.56
28167;BME280;15455;53.376;-6.262;2022-07-29T14:30:22;101391.94;;;23.22;65.78
28167;BME280;15455;53.376;-6.262;2022-07-29T14:33:07;101391.81;;;23.26;65.42
28167;BME280;15455;53.376;-6.262;2022-07-29T14:35:53;101397.41;;;23.19;66.22
28167;BME280;15455;53.376;-6.262;2022-07-29T14:38:45;101401.50;;;23.27;67.48
28167;BME280;15455;53.376;-6.262;2022-07-29T14:41:31;101397.13;;;23.26;66.73
28167;BME280;15455;53.376;-6.262;2022-07-29T14:44:17;101398.78;;;23.07;64.78
28167;BME280;15455;53.376;-6.262;2022-07-29T14:47:03;101390.34;;;22.98;67.07
28167;BME280;15455;53.376;-6.262;2022-07-29T14:49:52;101398.66;;;22.90;67.34
28167;BME280;15455;53.376;-6.262;2022-07-29T14:52:38;101393.41;;;22.88;66.07